Dominia — ICFW — position and weather

sailwx.info

Track history (hours):
 
Tides and Currents Weather Stations Pressure Air Temp Water Temp Dewpoint Dewpoint Depression Visibility Wind Speed Wind Dir Waves Ship Positions

Dominia

Last reported at 2017-Mar-26 14:31 UTC. Time now 2017-Mar-26 15:27 UTC.
Position N 39°05' E 009°02'.

Length 176 m; draft 7.3 m.

Type: Ship. MMSI: 247273400.

Date/timePositionNaut miles runAvg speedWind from/ knotsBaromVisibWave heightAir tempDewpointWater temp
2017-Mar-26 14:31N 39°05' E 009°02'0 0.0
2017-Mar-26 13:31N 39°05' E 009°02'0 0.0
2017-Mar-26 12:31N 39°05' E 009°02'0 0.0
2017-Mar-26 11:28N 39°05' E 009°02'0 0.0
2017-Mar-26 10:31N 39°05' E 009°02'0 0.0
2017-Mar-26 09:31N 39°05' E 009°02'0 0.0
2017-Mar-26 08:31N 39°05' E 009°02'2 2.5
2017-Mar-26 07:31N 39°05' E 009°05'0 0.1
2017-Mar-26 06:31N 39°05' E 009°05'0 0.0
2017-Mar-26 05:31N 39°05' E 009°05'0 0.0
2017-Mar-26 04:31N 39°05' E 009°05'0 0.0
2017-Mar-26 03:31N 39°05' E 009°05'0 0.0
2017-Mar-26 02:31N 39°05' E 009°05'0 0.0
2017-Mar-26 01:31N 39°05' E 009°05'0 0.0
2017-Mar-26 00:31N 39°05' E 009°05'0 0.1
2017-Mar-25 23:31N 39°05' E 009°05'0 0.1
2017-Mar-25 22:31N 39°05' E 009°05'0 0.1
2017-Mar-25 21:31N 39°05' E 009°05'0 0.0
2017-Mar-25 20:31N 39°05' E 009°05'0 0.0
2017-Mar-25 19:31N 39°05' E 009°05'0 0.0
2017-Mar-25 18:31N 39°05' E 009°05'0 0.0
2017-Mar-25 17:31N 39°05' E 009°05'2 2.0
2017-Mar-25 16:33N 39°04' E 009°07'1111.2
2017-Mar-25 15:32N 38°53' E 009°02'5 4.8
2017-Mar-25 14:34N 38°48' E 009°03'4 3.9
2017-Mar-25 13:33N 38°48' E 009°08'3 3.3
2017-Mar-25 12:33N 38°48' E 009°12'4 3.9
2017-Mar-25 11:33N 38°48' E 009°17'3 3.2
2017-Mar-25 10:33N 38°48' E 009°21'9 6.2
2017-Mar-25 09:11N 38°48' E 009°10'3 5.1
2017-Mar-25 08:32N 38°48' E 009°06'5 5.5
2017-Mar-25 07:33N 38°48' E 008°59'5 5.3
2017-Mar-25 06:32N 38°48' E 008°52'5 5.1
2017-Mar-25 05:33N 38°48' E 008°46'6 5.0
2017-Mar-25 04:26N 38°48' E 008°39'249 8.9
2017-Mar-24 00:21N 40°19' E 003°38'1012.4
2017-Mar-23 23:31N 40°23' E 003°25'1212.9
2017-Mar-23 22:33N 40°27' E 003°10'1313.3
2017-Mar-23 21:33N 40°33' E 002°54'1413.7
2017-Mar-23 20:33N 40°37' E 002°37'1312.9
2017-Mar-23 19:33N 40°42' E 002°22'1312.6
2017-Mar-23 18:33N 40°47' E 002°06'1212.4
2017-Mar-23 17:33N 40°52' E 001°51'1312.7
2017-Mar-23 16:33N 40°57' E 001°36'9 0.2
2017-Mar-22 03:31N 40°55' E 001°47'1212.5
2017-Mar-22 02:33N 40°50' E 002°02'1313.0
2017-Mar-22 01:33N 40°45' E 002°18'1313.0
2017-Mar-22 00:33N 40°41' E 002°34'1312.9
2017-Mar-21 23:33N 40°36' E 002°50'1212.0
2017-Mar-21 22:33N 40°31' E 003°04'1211.8
2017-Mar-21 21:33N 40°27' E 003°19'1312.7
2017-Mar-21 20:33N 40°23' E 003°35'3313.0
2017-Mar-21 18:03N 40°11' E 004°14'20612.4
2017-Mar-21 01:31N 38°48' E 008°18'1312.4
2017-Mar-21 00:29N 38°42' E 008°33'1212.4
2017-Mar-20 23:33N 38°36' E 008°45'1312.4
2017-Mar-20 22:32N 38°30' E 008°59'1312.5
2017-Mar-20 21:30N 38°23' E 009°13'1212.8
2017-Mar-20 20:33N 38°16' E 009°26'3812.6
2017-Mar-20 17:33N 37°57' E 010°08'1312.8
2017-Mar-20 16:33N 37°51' E 010°22'1212.6
2017-Mar-20 15:33N 37°44' E 010°35'1312.6
2017-Mar-20 14:33N 37°38' E 010°49'1312.7
2017-Mar-20 13:33N 37°31' E 011°03'4112.9
2017-Mar-20 10:23N 37°13' E 011°49'1012.7
2017-Mar-20 09:33N 37°08' E 012°01'1312.5
2017-Mar-20 08:33N 37°03' E 012°15'1212.2
2017-Mar-20 07:33N 36°58' E 012°29'1312.5
2017-Mar-20 06:33N 36°53' E 012°43'1313.2
2017-Mar-20 05:33N 36°47' E 012°58'1413.6
2017-Mar-20 04:33N 36°42' E 013°14'1413.7
2017-Mar-20 03:33N 36°36' E 013°29'1313.2
2017-Mar-20 02:33N 36°31' E 013°44'1313.3
2017-Mar-20 01:33N 36°25' E 013°59'1313.0
2017-Mar-20 00:33N 36°20' E 014°14'1313.0
2017-Mar-19 23:33N 36°15' E 014°29'1313.3
2017-Mar-19 22:33N 36°08' E 014°43'1313.1
2017-Mar-19 21:33N 36°02' E 014°57'1212.2
2017-Mar-19 20:33N 35°56' E 015°10'1 0.6
2017-Mar-19 19:33N 35°56' E 015°10'1 0.9
2017-Mar-19 18:33N 35°56' E 015°09'1 1.0
2017-Mar-19 17:33N 35°57' E 015°07'1 1.2
2017-Mar-19 16:33N 35°57' E 015°06'1 1.3
2017-Mar-19 15:33N 35°58' E 015°05'1 1.3
2017-Mar-19 14:33N 35°59' E 015°04'1 1.3
2017-Mar-19 13:27N 35°60' E 015°03'1 1.3
2017-Mar-19 12:33N 36°01' E 015°02'1 1.2
2017-Mar-19 11:33N 36°02' E 015°01'1 1.1
2017-Mar-19 10:33N 36°02' E 014°60'1 1.1
2017-Mar-19 09:33N 36°03' E 014°59'1 0.9
2017-Mar-19 08:33N 36°04' E 014°58'1 0.7
2017-Mar-19 07:33N 36°03' E 014°57'5 4.9
2017-Mar-19 06:33N 36°02' E 014°51'4 3.9
2017-Mar-19 05:33N 36°01' E 014°46'9 7.6
2017-Mar-19 04:25N 35°54' E 014°53'0 0.1
2017-Mar-19 03:25N 35°54' E 014°53'0 0.0
2017-Mar-19 02:31N 35°54' E 014°53'0 0.0
2017-Mar-19 01:31N 35°54' E 014°53'0 0.0
2017-Mar-19 00:31N 35°54' E 014°53'0 0.0
2017-Mar-18 23:31N 35°54' E 014°53'0 0.0
2017-Mar-18 22:31N 35°54' E 014°53'0 0.0
2017-Mar-18 21:31N 35°54' E 014°53'0 0.0
2017-Mar-18 20:31N 35°54' E 014°53'0 0.0
2017-Mar-18 19:22N 35°54' E 014°53'0 0.0
2017-Mar-18 18:31N 35°54' E 014°53'0 0.0
2017-Mar-18 17:31N 35°54' E 014°53'0 0.0
2017-Mar-18 16:31N 35°54' E 014°53'0 0.0
2017-Mar-18 15:31N 35°54' E 014°53'0 0.1
2017-Mar-18 14:31N 35°54' E 014°53'0 0.0
2017-Mar-18 13:31N 35°54' E 014°53'0 0.0
2017-Mar-18 12:25N 35°54' E 014°53'0 0.0
2017-Mar-18 11:22N 35°54' E 014°53'0 0.0
2017-Mar-18 10:31N 35°54' E 014°53'0 0.0
2017-Mar-18 09:31N 35°54' E 014°53'0 0.0
2017-Mar-18 08:31N 35°54' E 014°53'0 0.0
2017-Mar-18 07:25N 35°54' E 014°53'0 0.0
2017-Mar-18 06:31N 35°54' E 014°53'0 0.0
2017-Mar-18 05:22N 35°54' E 014°53'0 0.0
2017-Mar-18 04:28N 35°54' E 014°53'0 0.0
2017-Mar-18 03:28N 35°54' E 014°53'0 0.0
2017-Mar-18 02:22N 35°54' E 014°53'0 0.0
2017-Mar-18 01:31N 35°54' E 014°53'0 0.0
2017-Mar-18 00:31N 35°54' E 014°53'0 0.0
2017-Mar-17 23:31N 35°54' E 014°53'0 0.0
2017-Mar-17 22:31N 35°54' E 014°53'0 0.1
2017-Mar-17 21:31N 35°54' E 014°53'0 0.1
2017-Mar-17 20:31N 35°54' E 014°53'0 0.1
2017-Mar-17 19:25N 35°54' E 014°53'0 0.0
2017-Mar-17 18:31N 35°54' E 014°52'0 0.0
2017-Mar-17 17:31N 35°54' E 014°53'0 0.1
2017-Mar-17 16:31N 35°54' E 014°52'0 0.0
2017-Mar-17 15:31N 35°54' E 014°52'0 0.0
2017-Mar-17 14:28N 35°54' E 014°52'0 0.0
2017-Mar-17 13:19N 35°54' E 014°52'  
Track history (hours):
 
Tides and Currents Weather Stations Pressure Air Temp Water Temp Dewpoint Dewpoint Depression Visibility Wind Speed Wind Dir Waves Ship Positions

Dominia

Last reported at 2017-Mar-26 14:31 UTC. Time now 2017-Mar-26 15:27 UTC.
Position N 39°05' E 009°02'.

Length 176 m; draft 7.3 m.

Type: Ship. MMSI: 247273400.

Date/timePositionNaut miles runAvg speedWind from/ knotsBaromVisibWave heightAir tempDewpointWater temp
2017-Mar-26 14:31N 39°05' E 009°02'0 0.0
2017-Mar-26 13:31N 39°05' E 009°02'0 0.0
2017-Mar-26 12:31N 39°05' E 009°02'0 0.0
2017-Mar-26 11:28N 39°05' E 009°02'0 0.0
2017-Mar-26 10:31N 39°05' E 009°02'0 0.0
2017-Mar-26 09:31N 39°05' E 009°02'0 0.0
2017-Mar-26 08:31N 39°05' E 009°02'2 2.5
2017-Mar-26 07:31N 39°05' E 009°05'0 0.1
2017-Mar-26 06:31N 39°05' E 009°05'0 0.0
2017-Mar-26 05:31N 39°05' E 009°05'0 0.0
2017-Mar-26 04:31N 39°05' E 009°05'0 0.0
2017-Mar-26 03:31N 39°05' E 009°05'0 0.0
2017-Mar-26 02:31N 39°05' E 009°05'0 0.0
2017-Mar-26 01:31N 39°05' E 009°05'0 0.0
2017-Mar-26 00:31N 39°05' E 009°05'0 0.1
2017-Mar-25 23:31N 39°05' E 009°05'0 0.1
2017-Mar-25 22:31N 39°05' E 009°05'0 0.1
2017-Mar-25 21:31N 39°05' E 009°05'0 0.0
2017-Mar-25 20:31N 39°05' E 009°05'0 0.0
2017-Mar-25 19:31N 39°05' E 009°05'0 0.0
2017-Mar-25 18:31N 39°05' E 009°05'0 0.0
2017-Mar-25 17:31N 39°05' E 009°05'2 2.0
2017-Mar-25 16:33N 39°04' E 009°07'1111.2
2017-Mar-25 15:32N 38°53' E 009°02'5 4.8
2017-Mar-25 14:34N 38°48' E 009°03'4 3.9
2017-Mar-25 13:33N 38°48' E 009°08'3 3.3
2017-Mar-25 12:33N 38°48' E 009°12'4 3.9
2017-Mar-25 11:33N 38°48' E 009°17'3 3.2
2017-Mar-25 10:33N 38°48' E 009°21'9 6.2
2017-Mar-25 09:11N 38°48' E 009°10'3 5.1
2017-Mar-25 08:32N 38°48' E 009°06'5 5.5
2017-Mar-25 07:33N 38°48' E 008°59'5 5.3
2017-Mar-25 06:32N 38°48' E 008°52'5 5.1
2017-Mar-25 05:33N 38°48' E 008°46'6 5.0
2017-Mar-25 04:26N 38°48' E 008°39'249 8.9
2017-Mar-24 00:21N 40°19' E 003°38'1012.4
2017-Mar-23 23:31N 40°23' E 003°25'1212.9
2017-Mar-23 22:33N 40°27' E 003°10'1313.3
2017-Mar-23 21:33N 40°33' E 002°54'1413.7
2017-Mar-23 20:33N 40°37' E 002°37'1312.9
2017-Mar-23 19:33N 40°42' E 002°22'1312.6
2017-Mar-23 18:33N 40°47' E 002°06'1212.4
2017-Mar-23 17:33N 40°52' E 001°51'1312.7
2017-Mar-23 16:33N 40°57' E 001°36'9 0.2
2017-Mar-22 03:31N 40°55' E 001°47'1212.5
2017-Mar-22 02:33N 40°50' E 002°02'1313.0
2017-Mar-22 01:33N 40°45' E 002°18'1313.0
2017-Mar-22 00:33N 40°41' E 002°34'1312.9
2017-Mar-21 23:33N 40°36' E 002°50'1212.0
2017-Mar-21 22:33N 40°31' E 003°04'1211.8
2017-Mar-21 21:33N 40°27' E 003°19'1312.7
2017-Mar-21 20:33N 40°23' E 003°35'3313.0
2017-Mar-21 18:03N 40°11' E 004°14'20612.4
2017-Mar-21 01:31N 38°48' E 008°18'1312.4
2017-Mar-21 00:29N 38°42' E 008°33'1212.4
2017-Mar-20 23:33N 38°36' E 008°45'1312.4
2017-Mar-20 22:32N 38°30' E 008°59'1312.5
2017-Mar-20 21:30N 38°23' E 009°13'1212.8
2017-Mar-20 20:33N 38°16' E 009°26'3812.6
2017-Mar-20 17:33N 37°57' E 010°08'1312.8
2017-Mar-20 16:33N 37°51' E 010°22'1212.6
2017-Mar-20 15:33N 37°44' E 010°35'1312.6
2017-Mar-20 14:33N 37°38' E 010°49'1312.7
2017-Mar-20 13:33N 37°31' E 011°03'4112.9
2017-Mar-20 10:23N 37°13' E 011°49'1012.7
2017-Mar-20 09:33N 37°08' E 012°01'1312.5
2017-Mar-20 08:33N 37°03' E 012°15'1212.2
2017-Mar-20 07:33N 36°58' E 012°29'1312.5
2017-Mar-20 06:33N 36°53' E 012°43'1313.2
2017-Mar-20 05:33N 36°47' E 012°58'1413.6
2017-Mar-20 04:33N 36°42' E 013°14'1413.7
2017-Mar-20 03:33N 36°36' E 013°29'1313.2
2017-Mar-20 02:33N 36°31' E 013°44'1313.3
2017-Mar-20 01:33N 36°25' E 013°59'1313.0
2017-Mar-20 00:33N 36°20' E 014°14'1313.0
2017-Mar-19 23:33N 36°15' E 014°29'1313.3
2017-Mar-19 22:33N 36°08' E 014°43'1313.1
2017-Mar-19 21:33N 36°02' E 014°57'1212.2
2017-Mar-19 20:33N 35°56' E 015°10'1 0.6
2017-Mar-19 19:33N 35°56' E 015°10'1 0.9
2017-Mar-19 18:33N 35°56' E 015°09'1 1.0
2017-Mar-19 17:33N 35°57' E 015°07'1 1.2
2017-Mar-19 16:33N 35°57' E 015°06'1 1.3
2017-Mar-19 15:33N 35°58' E 015°05'1 1.3
2017-Mar-19 14:33N 35°59' E 015°04'1 1.3
2017-Mar-19 13:27N 35°60' E 015°03'1 1.3
2017-Mar-19 12:33N 36°01' E 015°02'1 1.2
2017-Mar-19 11:33N 36°02' E 015°01'1 1.1
2017-Mar-19 10:33N 36°02' E 014°60'1 1.1
2017-Mar-19 09:33N 36°03' E 014°59'1 0.9
2017-Mar-19 08:33N 36°04' E 014°58'1 0.7
2017-Mar-19 07:33N 36°03' E 014°57'5 4.9
2017-Mar-19 06:33N 36°02' E 014°51'4 3.9
2017-Mar-19 05:33N 36°01' E 014°46'9 7.6
2017-Mar-19 04:25N 35°54' E 014°53'0 0.1
2017-Mar-19 03:25N 35°54' E 014°53'0 0.0
2017-Mar-19 02:31N 35°54' E 014°53'0 0.0
2017-Mar-19 01:31N 35°54' E 014°53'0 0.0
2017-Mar-19 00:31N 35°54' E 014°53'0 0.0
2017-Mar-18 23:31N 35°54' E 014°53'0 0.0
2017-Mar-18 22:31N 35°54' E 014°53'0 0.0
2017-Mar-18 21:31N 35°54' E 014°53'0 0.0
2017-Mar-18 20:31N 35°54' E 014°53'0 0.0
2017-Mar-18 19:22N 35°54' E 014°53'0 0.0
2017-Mar-18 18:31N 35°54' E 014°53'0 0.0
2017-Mar-18 17:31N 35°54' E 014°53'0 0.0
2017-Mar-18 16:31N 35°54' E 014°53'0 0.0
2017-Mar-18 15:31N 35°54' E 014°53'0 0.1
2017-Mar-18 14:31N 35°54' E 014°53'0 0.0
2017-Mar-18 13:31N 35°54' E 014°53'0 0.0
2017-Mar-18 12:25N 35°54' E 014°53'0 0.0
2017-Mar-18 11:22N 35°54' E 014°53'0 0.0
2017-Mar-18 10:31N 35°54' E 014°53'0 0.0
2017-Mar-18 09:31N 35°54' E 014°53'0 0.0
2017-Mar-18 08:31N 35°54' E 014°53'0 0.0
2017-Mar-18 07:25N 35°54' E 014°53'0 0.0
2017-Mar-18 06:31N 35°54' E 014°53'0 0.0
2017-Mar-18 05:22N 35°54' E 014°53'0 0.0
2017-Mar-18 04:28N 35°54' E 014°53'0 0.0
2017-Mar-18 03:28N 35°54' E 014°53'0 0.0
2017-Mar-18 02:22N 35°54' E 014°53'0 0.0
2017-Mar-18 01:31N 35°54' E 014°53'0 0.0
2017-Mar-18 00:31N 35°54' E 014°53'0 0.0
2017-Mar-17 23:31N 35°54' E 014°53'0 0.0
2017-Mar-17 22:31N 35°54' E 014°53'0 0.1
2017-Mar-17 21:31N 35°54' E 014°53'0 0.1
2017-Mar-17 20:31N 35°54' E 014°53'0 0.1
2017-Mar-17 19:25N 35°54' E 014°53'0 0.0
2017-Mar-17 18:31N 35°54' E 014°52'0 0.0
2017-Mar-17 17:31N 35°54' E 014°53'0 0.1
2017-Mar-17 16:31N 35°54' E 014°52'0 0.0
2017-Mar-17 15:31N 35°54' E 014°52'0 0.0
2017-Mar-17 14:28N 35°54' E 014°52'0 0.0
2017-Mar-17 13:19N 35°54' E 014°52'  

Dump ship's entire track history